createdAt,value
2018-09-08T00:00:52.468Z,0.00
2018-09-08T00:01:52.457Z,0.00
2018-09-08T00:02:52.435Z,0.00
2018-09-08T00:03:52.417Z,0.00
2018-09-08T00:04:52.399Z,0.00
2018-09-08T00:05:52.382Z,0.00
2018-09-08T00:06:52.364Z,0.00
2018-09-08T00:07:52.350Z,0.00
2018-09-08T00:08:52.334Z,0.00
2018-09-08T00:09:52.318Z,0.00
2018-09-08T00:10:52.302Z,0.00
2018-09-08T00:11:52.292Z,0.00
2018-09-08T00:12:52.270Z,0.00
2018-09-08T00:13:52.251Z,0.00
2018-09-08T00:14:52.232Z,0.00
2018-09-08T00:15:52.222Z,0.00
2018-09-08T00:16:52.203Z,0.00
2018-09-08T00:17:52.185Z,0.00
2018-09-08T00:18:52.164Z,0.00
2018-09-08T00:19:52.151Z,0.00
2018-09-08T00:20:52.131Z,0.00
2018-09-08T00:21:52.114Z,0.00
2018-09-08T00:22:52.098Z,0.00
2018-09-08T00:23:52.081Z,0.00
2018-09-08T00:24:52.064Z,0.00
2018-09-08T00:25:52.047Z,0.00
2018-09-08T00:26:52.031Z,0.00
2018-09-08T00:27:52.015Z,0.00
2018-09-08T00:28:52.000Z,0.00
2018-09-08T00:29:51.978Z,0.00
2018-09-08T00:30:51.965Z,0.00
2018-09-08T00:31:51.947Z,0.00
2018-09-08T00:32:51.931Z,0.00
2018-09-08T00:33:51.916Z,0.00
2018-09-08T00:34:51.895Z,0.00
2018-09-08T00:35:51.878Z,0.00
2018-09-08T00:36:51.863Z,0.00
2018-09-08T00:37:51.848Z,0.00
2018-09-08T00:38:51.825Z,0.00
2018-09-08T00:39:51.812Z,0.00
2018-09-08T00:40:51.794Z,0.00
2018-09-08T00:41:51.798Z,0.00
2018-09-08T00:42:51.762Z,0.00
2018-09-08T00:43:51.741Z,0.00
2018-09-08T00:44:51.724Z,0.00
2018-09-08T00:45:51.806Z,0.00
2018-09-08T00:46:51.688Z,0.00
2018-09-08T00:47:51.673Z,0.00
2018-09-08T00:48:51.663Z,0.00
2018-09-08T00:49:51.637Z,0.00
2018-09-08T00:50:51.621Z,0.00
2018-09-08T00:51:51.605Z,0.00
2018-09-08T00:52:51.588Z,0.00
2018-09-08T00:53:51.572Z,0.00
2018-09-08T00:54:51.550Z,0.00
2018-09-08T00:55:51.538Z,0.00
2018-09-08T00:56:51.561Z,0.00
2018-09-08T00:57:51.502Z,0.00
2018-09-08T00:58:51.483Z,0.00
2018-09-08T00:59:51.469Z,0.00
2018-09-08T01:00:51.448Z,0.00
2018-09-08T01:01:51.432Z,0.00
2018-09-08T01:02:51.417Z,0.00
2018-09-08T01:03:51.515Z,0.00
2018-09-08T01:04:51.384Z,0.00
2018-09-08T01:05:51.360Z,0.00
2018-09-08T01:06:51.344Z,0.00
2018-09-08T01:07:51.326Z,0.00
2018-09-08T01:08:51.309Z,0.00
2018-09-08T01:09:51.295Z,0.00
2018-09-08T01:10:51.275Z,0.00
2018-09-08T01:11:51.257Z,0.00
2018-09-08T01:12:51.242Z,0.00
2018-09-08T01:13:51.230Z,0.00
2018-09-08T01:14:51.214Z,0.00
2018-09-08T01:15:51.185Z,0.00
2018-09-08T01:16:51.168Z,0.00
2018-09-08T01:17:51.151Z,0.00
2018-09-08T01:18:51.134Z,0.00
2018-09-08T01:19:51.115Z,0.00
2018-09-08T01:20:51.102Z,0.00
2018-09-08T01:21:51.080Z,0.00
2018-09-08T01:22:51.063Z,0.00
2018-09-08T01:23:51.055Z,0.00
2018-09-08T01:24:51.026Z,0.00
2018-09-08T01:25:51.009Z,0.00
2018-09-08T01:26:50.991Z,0.00
2018-09-08T01:27:50.981Z,0.00
2018-09-08T01:28:50.960Z,0.00
2018-09-08T01:29:50.937Z,0.00
2018-09-08T01:30:50.919Z,0.00
2018-09-08T01:31:50.903Z,0.00
2018-09-08T01:32:50.886Z,0.00
2018-09-08T01:33:50.866Z,0.00
2018-09-08T01:34:50.850Z,0.00
2018-09-08T01:35:50.830Z,0.00
2018-09-08T01:36:50.812Z,0.00
2018-09-08T01:37:50.797Z,0.00
2018-09-08T01:38:50.775Z,0.00
2018-09-08T01:39:50.759Z,0.00
2018-09-08T01:40:50.740Z,0.00
2018-09-08T01:41:50.722Z,0.00
2018-09-08T01:42:50.705Z,0.00
2018-09-08T01:43:50.690Z,0.00
2018-09-08T01:44:50.678Z,0.00
2018-09-08T01:45:50.653Z,0.00
2018-09-08T01:46:50.633Z,0.00
2018-09-08T01:47:50.612Z,0.00
2018-09-08T01:48:50.594Z,0.00
2018-09-08T01:49:50.587Z,0.00
2018-09-08T01:50:50.559Z,0.00
2018-09-08T01:51:50.541Z,0.00
2018-09-08T01:52:50.522Z,0.00
2018-09-08T01:53:50.511Z,0.00
2018-09-08T01:54:50.486Z,0.00
2018-09-08T01:55:50.473Z,0.00
2018-09-08T01:56:50.450Z,0.00
2018-09-08T01:57:50.437Z,0.00
2018-09-08T01:58:50.416Z,0.00
2018-09-08T01:59:50.395Z,0.00
2018-09-08T02:00:50.378Z,0.00
2018-09-08T02:01:50.360Z,0.00
2018-09-08T02:02:50.341Z,0.00
2018-09-08T02:03:50.323Z,0.00
2018-09-08T02:04:50.305Z,0.00
2018-09-08T02:05:50.286Z,0.00
2018-09-08T02:06:50.268Z,0.00
2018-09-08T02:07:50.250Z,0.00
2018-09-08T02:08:50.233Z,0.00
2018-09-08T02:09:50.213Z,0.00
2018-09-08T02:10:50.195Z,0.00
2018-09-08T02:11:50.176Z,0.00
2018-09-08T02:12:50.157Z,0.00
2018-09-08T02:13:50.142Z,0.00
2018-09-08T02:14:50.123Z,0.00
2018-09-08T02:15:50.103Z,0.00
2018-09-08T02:16:50.085Z,0.00
2018-09-08T02:17:50.066Z,0.00
2018-09-08T02:18:50.051Z,0.00
2018-09-08T02:19:50.030Z,0.00
2018-09-08T02:20:50.013Z,0.00
2018-09-08T02:21:49.990Z,0.00
2018-09-08T02:22:49.976Z,0.00
2018-09-08T02:23:49.961Z,0.00
2018-09-08T02:24:49.937Z,0.00
2018-09-08T02:25:49.918Z,0.00
2018-09-08T02:26:49.899Z,0.00
2018-09-08T02:27:49.884Z,0.00
2018-09-08T02:28:49.864Z,0.00
2018-09-08T02:29:49.847Z,0.00
2018-09-08T02:30:49.826Z,0.00
2018-09-08T02:31:49.807Z,0.00
2018-09-08T02:32:49.791Z,0.00
2018-09-08T02:33:49.773Z,0.00
2018-09-08T02:34:49.764Z,0.00
2018-09-08T02:35:49.733Z,0.00
2018-09-08T02:36:49.718Z,0.00
2018-09-08T02:37:49.694Z,0.00
2018-09-08T02:38:49.675Z,0.00
2018-09-08T02:39:49.660Z,0.00
2018-09-08T02:40:49.641Z,0.00
2018-09-08T02:41:49.622Z,0.00
2018-09-08T02:42:49.601Z,0.00
2018-09-08T02:43:49.587Z,0.00
2018-09-08T02:44:49.564Z,0.00
2018-09-08T02:45:49.548Z,0.00
2018-09-08T02:46:49.531Z,0.00
2018-09-08T02:47:49.507Z,0.00
2018-09-08T02:48:49.490Z,0.00
2018-09-08T02:49:49.473Z,0.00
2018-09-08T02:50:49.452Z,0.00
2018-09-08T02:51:49.435Z,0.00
2018-09-08T02:52:49.421Z,0.00
2018-09-08T02:53:49.395Z,0.00
2018-09-08T02:54:49.377Z,0.00
2018-09-08T02:55:49.357Z,0.00
2018-09-08T02:56:49.340Z,0.00
2018-09-08T02:57:49.320Z,0.00
2018-09-08T02:58:49.305Z,0.00
2018-09-08T02:59:49.284Z,0.00
2018-09-08T03:00:49.267Z,0.00
2018-09-08T03:01:49.246Z,0.00
2018-09-08T03:02:49.225Z,0.00
2018-09-08T03:03:49.209Z,0.00
2018-09-08T03:04:49.194Z,0.00
2018-09-08T03:05:49.170Z,0.00
2018-09-08T03:06:49.153Z,0.00
2018-09-08T03:07:49.134Z,0.00
2018-09-08T03:08:49.115Z,0.00
2018-09-08T03:09:49.095Z,0.00
2018-09-08T03:10:49.077Z,0.00
2018-09-08T03:11:49.057Z,0.00
2018-09-08T03:12:49.040Z,0.00
2018-09-08T03:13:49.019Z,0.00
2018-09-08T03:14:49.006Z,0.00
2018-09-08T03:15:48.982Z,0.00
2018-09-08T03:16:48.964Z,0.00
2018-09-08T03:17:48.949Z,0.00
2018-09-08T03:18:48.932Z,0.00
2018-09-08T03:19:48.908Z,0.00
2018-09-08T03:20:48.889Z,0.00
2018-09-08T03:21:48.873Z,0.00
2018-09-08T03:22:48.852Z,0.00
2018-09-08T03:23:48.834Z,0.00
2018-09-08T03:24:48.817Z,0.00
2018-09-08T03:25:48.796Z,0.00
2018-09-08T03:26:48.777Z,0.00
2018-09-08T03:27:48.760Z,0.00
2018-09-08T03:28:48.740Z,0.00
2018-09-08T03:29:48.722Z,0.00
2018-09-08T03:30:48.705Z,0.00
2018-09-08T03:31:48.686Z,0.00
2018-09-08T03:32:48.665Z,0.00
2018-09-08T03:33:48.649Z,0.00
2018-09-08T03:34:48.631Z,0.00
2018-09-08T03:35:48.609Z,0.00
2018-09-08T03:36:48.594Z,0.00
2018-09-08T03:37:48.572Z,0.00
2018-09-08T03:38:48.552Z,0.00
2018-09-08T03:39:48.534Z,0.00
2018-09-08T03:40:48.516Z,0.00
2018-09-08T03:41:48.495Z,0.00
2018-09-08T03:42:48.480Z,0.00
2018-09-08T03:43:48.459Z,0.00
2018-09-08T03:44:48.449Z,0.00
2018-09-08T03:45:48.420Z,0.00
2018-09-08T03:46:48.407Z,0.00
2018-09-08T03:47:48.383Z,0.00
2018-09-08T03:48:48.364Z,0.00
2018-09-08T03:49:48.347Z,0.00
2018-09-08T03:50:48.330Z,0.00
2018-09-08T03:51:48.311Z,0.00
2018-09-08T03:52:48.292Z,0.00
2018-09-08T03:53:48.274Z,0.00
2018-09-08T03:54:48.253Z,0.00
2018-09-08T03:55:48.244Z,0.00
2018-09-08T03:56:48.219Z,0.00
2018-09-08T03:57:48.197Z,4.00
2018-09-08T03:58:48.227Z,4.00
2018-09-08T03:59:48.161Z,0.00
2018-09-08T04:00:48.143Z,4.00
2018-09-08T04:01:48.123Z,4.00
2018-09-08T04:02:48.108Z,4.00
2018-09-08T04:03:48.087Z,4.00
2018-09-08T04:04:48.067Z,8.00
2018-09-08T04:05:48.048Z,8.00
2018-09-08T04:06:48.029Z,8.00
2018-09-08T04:07:48.014Z,8.00
2018-09-08T04:08:47.994Z,8.00
2018-09-08T04:09:47.975Z,12.00
2018-09-08T04:10:47.954Z,16.00
2018-09-08T04:11:47.982Z,16.00
2018-09-08T04:12:47.921Z,20.00
2018-09-08T04:13:47.898Z,24.00
2018-09-08T04:14:47.880Z,28.00
2018-09-08T04:15:47.861Z,32.00
2018-09-08T04:16:47.842Z,40.00
2018-09-08T04:17:47.823Z,44.00
2018-09-08T04:18:47.813Z,52.00
2018-09-08T04:19:47.786Z,60.00
2018-09-08T04:20:47.772Z,64.00
2018-09-08T04:21:47.749Z,72.00
2018-09-08T04:22:47.730Z,80.00
2018-09-08T04:23:47.712Z,92.00
2018-09-08T04:24:47.696Z,100.00
2018-09-08T04:25:47.674Z,112.00
2018-09-08T04:26:47.655Z,124.00
2018-09-08T04:27:47.657Z,136.00
2018-09-08T04:28:47.618Z,148.00
2018-09-08T04:29:47.599Z,160.00
2018-09-08T04:30:47.579Z,172.00
2018-09-08T04:31:47.561Z,192.00
2018-09-08T04:32:47.542Z,208.00
2018-09-08T04:33:47.523Z,220.00
2018-09-08T04:34:47.505Z,244.00
2018-09-08T04:35:47.486Z,264.00
2018-09-08T04:36:47.476Z,276.00
2018-09-08T04:37:47.447Z,292.00
2018-09-08T04:38:47.435Z,316.00
2018-09-08T04:39:47.414Z,344.00
2018-09-08T04:40:47.395Z,364.00
2018-09-08T04:41:47.371Z,384.00
2018-09-08T04:42:47.353Z,408.00
2018-09-08T04:43:47.333Z,440.00
2018-09-08T04:44:47.316Z,460.00
2018-09-08T04:45:47.293Z,480.00
2018-09-08T04:46:47.279Z,516.00
2018-09-08T04:47:47.260Z,552.00
2018-09-08T04:48:47.239Z,576.00
2018-09-08T04:49:47.219Z,600.00
2018-09-08T04:50:47.201Z,616.00
2018-09-08T04:51:47.184Z,640.00
2018-09-08T04:52:47.162Z,664.00
2018-09-08T04:53:47.141Z,684.00
2018-09-08T04:54:47.127Z,704.00
2018-09-08T04:55:47.105Z,728.00
2018-09-08T04:56:47.087Z,752.00
2018-09-08T04:57:47.065Z,780.00
2018-09-08T04:58:47.049Z,812.00
2018-09-08T04:59:47.027Z,836.00
2018-09-08T05:00:47.011Z,868.00
2018-09-08T05:01:46.991Z,900.00
2018-09-08T05:02:46.972Z,928.00
2018-09-08T05:03:46.953Z,944.00
2018-09-08T05:04:46.934Z,956.00
2018-09-08T05:05:46.915Z,976.00
2018-09-08T05:06:46.898Z,1004.00
2018-09-08T05:07:46.876Z,1036.00
2018-09-08T05:08:46.860Z,1064.00
2018-09-08T05:09:46.838Z,1096.00
2018-09-08T05:10:46.817Z,1124.00
2018-09-08T05:11:46.798Z,1148.00
2018-09-08T05:12:46.780Z,1180.00
2018-09-08T05:13:46.765Z,1208.00
2018-09-08T05:14:46.741Z,1240.00
2018-09-08T05:15:46.722Z,1272.00
2018-09-08T05:16:46.703Z,1312.00
2018-09-08T05:17:46.684Z,1344.00
2018-09-08T05:18:46.669Z,1380.00
2018-09-08T05:19:46.647Z,1420.00
2018-09-08T05:20:46.629Z,1456.00
2018-09-08T05:21:46.610Z,1492.00
2018-09-08T05:22:46.588Z,1532.00
2018-09-08T05:23:46.568Z,1572.00
2018-09-08T05:24:46.550Z,1616.00
2018-09-08T05:26:29.055Z,1696.00
2018-09-08T05:27:29.036Z,1716.00
2018-09-08T05:28:29.074Z,1724.00
2018-09-08T05:29:28.997Z,1748.00
2018-09-08T05:30:28.977Z,1788.00
2018-09-08T05:31:28.961Z,1824.00
2018-09-08T05:32:28.948Z,1876.00
2018-09-08T05:33:28.919Z,1908.00
2018-09-08T05:34:28.900Z,1960.00
2018-09-08T05:35:28.882Z,2012.00
2018-09-08T05:36:28.865Z,2012.00
2018-09-08T05:37:28.844Z,2048.00
2018-09-08T05:38:28.826Z,2116.00
2018-09-08T05:39:28.807Z,2188.00
2018-09-08T05:40:28.786Z,2432.00
2018-09-08T05:41:28.767Z,2680.00
2018-09-08T05:42:28.749Z,2508.00
2018-09-08T05:43:28.728Z,2424.00
2018-09-08T05:44:28.711Z,2564.00
2018-09-08T05:45:28.690Z,2552.00
2018-09-08T05:46:28.671Z,2436.00
2018-09-08T05:47:28.652Z,2448.00
2018-09-08T05:48:28.634Z,2448.00
2018-09-08T05:49:28.613Z,2480.00
2018-09-08T05:50:28.596Z,2528.00
2018-09-08T05:51:28.576Z,2536.00
2018-09-08T05:52:28.556Z,2588.00
2018-09-08T05:53:28.537Z,2716.00
2018-09-08T05:54:28.517Z,2840.00
2018-09-08T05:55:28.503Z,2808.00
2018-09-08T05:56:28.483Z,2628.00
2018-09-08T05:57:28.459Z,2632.00
2018-09-08T05:58:28.472Z,2712.00
2018-09-08T05:59:28.430Z,2756.00
2018-09-08T06:00:28.407Z,2808.00
2018-09-08T06:01:28.387Z,2896.00
2018-09-08T06:02:28.369Z,2944.00
2018-09-08T06:03:28.351Z,2980.00
2018-09-08T06:04:28.331Z,2952.00
2018-09-08T06:05:28.314Z,2892.00
2018-09-08T06:06:28.292Z,2856.00
2018-09-08T06:07:28.276Z,2868.00
2018-09-08T06:08:28.258Z,2880.00
2018-09-08T06:09:28.236Z,2900.00
2018-09-08T06:10:28.220Z,2936.00
2018-09-08T06:11:28.198Z,2976.00
2018-09-08T06:12:28.184Z,3000.00
2018-09-08T06:13:28.169Z,3060.00
2018-09-08T06:14:28.142Z,3124.00
2018-09-08T06:15:28.123Z,3188.00
2018-09-08T06:16:28.106Z,3236.00
2018-09-08T06:17:28.195Z,3276.00
2018-09-08T06:18:28.069Z,3336.00
2018-09-08T06:19:28.069Z,3396.00
2018-09-08T06:20:28.031Z,3436.00
2018-09-08T06:21:28.012Z,3456.00
2018-09-08T06:22:27.993Z,3460.00
2018-09-08T06:23:27.975Z,3484.00
2018-09-08T06:24:27.994Z,3532.00
2018-09-08T06:25:27.941Z,3548.00
2018-09-08T06:26:27.921Z,3544.00
2018-09-08T06:27:27.902Z,3544.00
2018-09-08T06:28:27.993Z,3552.00
2018-09-08T06:29:27.864Z,3560.00
2018-09-08T06:30:27.850Z,3556.00
2018-09-08T06:31:27.829Z,3572.00
2018-09-08T06:32:27.812Z,3592.00
2018-09-08T06:33:27.797Z,3632.00
2018-09-08T06:34:27.775Z,3696.00
2018-09-08T06:35:27.767Z,3760.00
2018-09-08T06:36:27.738Z,3792.00
2018-09-08T06:37:27.719Z,3820.00
2018-09-08T06:38:27.706Z,3868.00
2018-09-08T06:39:27.686Z,3916.00
2018-09-08T06:40:27.671Z,3944.00
2018-09-08T06:41:27.648Z,3988.00
2018-09-08T06:42:27.629Z,4036.00
2018-09-08T06:43:27.620Z,4108.00
2018-09-08T06:44:27.596Z,4180.00
2018-09-08T06:45:27.582Z,4252.00
2018-09-08T06:46:27.564Z,4328.00
2018-09-08T06:47:27.541Z,4396.00
2018-09-08T06:48:27.526Z,4444.00
2018-09-08T06:49:27.507Z,4524.00
2018-09-08T06:50:27.490Z,4616.00
2018-09-08T06:51:27.471Z,4700.00
2018-09-08T06:52:27.459Z,7192.00
2018-09-08T06:53:27.437Z,11900.00
2018-09-08T06:54:27.417Z,6900.00
2018-09-08T06:55:27.404Z,5048.00
2018-09-08T06:56:27.385Z,5100.00
2018-09-08T06:57:27.373Z,5160.00
2018-09-08T06:58:27.355Z,5288.00
2018-09-08T06:59:27.332Z,5748.00
2018-09-08T07:00:27.315Z,8204.00
2018-09-08T07:01:27.298Z,9144.00
2018-09-08T07:02:27.283Z,9948.00
2018-09-08T07:03:27.349Z,14588.00
2018-09-08T07:04:27.258Z,24640.00
2018-09-08T07:05:27.233Z,27584.00
2018-09-08T07:06:27.217Z,29856.00
2018-09-08T07:07:27.199Z,30688.00
2018-09-08T07:08:27.185Z,31264.00
2018-09-08T07:09:27.168Z,31904.00
2018-09-08T07:10:29.773Z,32000.00
2018-09-08T07:11:27.137Z,34528.00
2018-09-08T07:12:27.136Z,33536.00
2018-09-08T07:13:27.106Z,33216.00
2018-09-08T07:14:27.094Z,37248.00
2018-09-08T07:15:27.076Z,34208.00
2018-09-08T07:16:27.068Z,34752.00
2018-09-08T07:17:27.044Z,35296.00
2018-09-08T07:18:27.032Z,33760.00
2018-09-08T07:19:27.023Z,38624.00
2018-09-08T07:20:27.004Z,36736.00
2018-09-08T07:21:26.988Z,38144.00
2018-09-08T07:22:26.978Z,38848.00
2018-09-08T07:23:26.963Z,37792.00
2018-09-08T07:24:26.950Z,40992.00
2018-09-08T07:25:26.944Z,39424.00
2018-09-08T07:26:26.925Z,39488.00
2018-09-08T07:27:26.914Z,41568.00
2018-09-08T07:28:26.902Z,41184.00
2018-09-08T07:29:26.902Z,42432.00
2018-09-08T07:30:26.880Z,43552.00
2018-09-08T07:31:26.864Z,42752.00
2018-09-08T07:32:26.854Z,44320.00
2018-09-08T07:33:26.843Z,45280.00
2018-09-08T07:34:26.831Z,44256.00
2018-09-08T07:35:26.820Z,46592.00
2018-09-08T07:36:26.823Z,50208.00
2018-09-08T07:37:26.879Z,48448.00
2018-09-08T07:38:26.789Z,48192.00
2018-09-08T07:39:26.778Z,47808.00
2018-09-08T07:40:26.768Z,47584.00
2018-09-08T07:41:26.761Z,48704.00
2018-09-08T07:42:26.751Z,49728.00
2018-09-08T07:43:26.741Z,50272.00
2018-09-08T07:44:26.734Z,51008.00
2018-09-08T07:45:26.722Z,51008.00
2018-09-08T07:46:26.718Z,51104.00
2018-09-08T07:47:26.707Z,51392.00
2018-09-08T07:48:26.698Z,49696.00
2018-09-08T07:49:26.690Z,49792.00
2018-09-08T07:50:26.685Z,51104.00
2018-09-08T07:51:26.677Z,53536.00
2018-09-08T07:52:26.668Z,55040.00
2018-09-08T07:53:26.750Z,53472.00
2018-09-08T07:54:26.652Z,52736.00
2018-09-08T07:55:26.693Z,55936.00
2018-09-08T07:56:26.642Z,57568.00
2018-09-08T07:57:26.710Z,56256.00
2018-09-08T07:58:26.622Z,56448.00
2018-09-08T07:59:26.757Z,57856.00
2018-09-08T08:00:26.611Z,55808.00
2018-09-08T08:01:26.604Z,54336.00
2018-09-08T08:02:26.597Z,53696.00
2018-09-08T08:03:26.593Z,52960.00
2018-09-08T08:04:26.585Z,56224.00
2018-09-08T08:05:26.580Z,57696.00
2018-09-08T08:06:26.574Z,55552.00
2018-09-08T08:07:26.570Z,57440.00
2018-09-08T08:08:26.561Z,59424.00
2018-09-08T08:09:26.555Z,59040.00
2018-09-08T08:10:26.755Z,60640.00
2018-09-08T08:11:26.546Z,59264.00
2018-09-08T08:12:26.541Z,55232.00
2018-09-08T08:13:26.535Z,58080.00
2018-09-08T08:14:26.623Z,59200.00
2018-09-08T08:15:26.526Z,58592.00
2018-09-08T08:16:26.524Z,61216.00
2018-09-08T08:17:26.518Z,61472.00
2018-09-08T08:18:26.511Z,63232.00
2018-09-08T08:19:26.506Z,65248.00
2018-09-08T08:20:26.504Z,62400.00
2018-09-08T08:21:26.497Z,62016.00
2018-09-08T08:22:26.492Z,61312.00
2018-09-08T08:23:26.487Z,62400.00
2018-09-08T08:24:26.494Z,62272.00
2018-09-08T08:25:26.477Z,64640.00
2018-09-08T08:26:26.478Z,64960.00
2018-09-08T08:27:26.476Z,64576.00
2018-09-08T08:28:27.901Z,62432.00
2018-09-08T08:29:26.472Z,59840.00
2018-09-08T08:30:26.461Z,60576.00
2018-09-08T08:31:26.453Z,66848.00
2018-09-08T08:32:26.448Z,67968.00
2018-09-08T08:33:26.445Z,66496.00
2018-09-08T08:34:26.446Z,65952.00
2018-09-08T08:35:26.436Z,67168.00
2018-09-08T08:36:26.439Z,68992.00
2018-09-08T08:37:26.429Z,71040.00
2018-09-08T08:38:26.425Z,72160.00
2018-09-08T08:39:26.422Z,70496.00
2018-09-08T08:40:26.418Z,65344.00
2018-09-08T08:41:26.413Z,65792.00
2018-09-08T08:42:26.410Z,69920.00
2018-09-08T08:43:26.408Z,68864.00
2018-09-08T08:44:26.404Z,66880.00
2018-09-08T08:45:26.399Z,67680.00
2018-09-08T08:46:26.399Z,70752.00
2018-09-08T08:47:26.392Z,70528.00
2018-09-08T08:48:26.391Z,69184.00
2018-09-08T08:49:26.389Z,74496.00
2018-09-08T08:50:26.383Z,76608.00
2018-09-08T08:51:26.379Z,76128.00
2018-09-08T08:52:26.463Z,75200.00
2018-09-08T08:53:26.372Z,72896.00
2018-09-08T08:54:26.369Z,72416.00
2018-09-08T08:55:26.369Z,73696.00
2018-09-08T08:56:26.364Z,76416.00
2018-09-08T08:57:26.359Z,78400.00
2018-09-08T08:58:26.357Z,76416.00
2018-09-08T08:59:26.355Z,76256.00
2018-09-08T09:00:26.364Z,76832.00
2018-09-08T09:01:26.348Z,72576.00
2018-09-08T09:02:26.346Z,67808.00
2018-09-08T09:03:26.343Z,67040.00
2018-09-08T09:04:26.342Z,72096.00
2018-09-08T09:05:26.337Z,74432.00
2018-09-08T09:06:26.335Z,76608.00
2018-09-08T09:07:26.333Z,77056.00
2018-09-08T09:08:26.764Z,78240.00
2018-09-08T09:09:26.326Z,79296.00
2018-09-08T09:10:26.324Z,80736.00
2018-09-08T09:11:26.323Z,81536.00
2018-09-08T09:12:26.320Z,77152.00
2018-09-08T09:13:26.362Z,79904.00
2018-09-08T09:14:26.315Z,77664.00
2018-09-08T09:15:26.732Z,76448.00
2018-09-08T09:16:26.310Z,76480.00
2018-09-08T09:17:26.307Z,79680.00
2018-09-08T09:18:26.306Z,83104.00
2018-09-08T09:19:26.304Z,82752.00
2018-09-08T09:20:26.305Z,80288.00
2018-09-08T09:21:26.300Z,79712.00
2018-09-08T09:22:26.302Z,81824.00
2018-09-08T09:23:26.297Z,80384.00
2018-09-08T09:24:26.402Z,79072.00
2018-09-08T09:25:26.292Z,77792.00
2018-09-08T09:26:26.290Z,80992.00
2018-09-08T09:27:26.292Z,84448.00
2018-09-08T09:28:26.290Z,82560.00
2018-09-08T09:29:26.284Z,75968.00
2018-09-08T09:30:26.282Z,76544.00
2018-09-08T09:31:26.280Z,82048.00
2018-09-08T09:32:26.279Z,82496.00
2018-09-08T09:33:26.276Z,75904.00
2018-09-08T09:34:26.274Z,74368.00
2018-09-08T09:35:26.273Z,80768.00
2018-09-08T09:36:26.273Z,26752.00
2018-09-08T09:37:26.389Z,80288.00
2018-09-08T09:38:26.266Z,80128.00
2018-09-08T09:39:26.263Z,78656.00
2018-09-08T09:40:26.263Z,81888.00
2018-09-08T09:41:26.262Z,82496.00
2018-09-08T09:42:26.258Z,82048.00
2018-09-08T09:43:26.258Z,77696.00
2018-09-08T09:44:26.256Z,76288.00
2018-09-08T09:45:26.254Z,74464.00
2018-09-08T09:46:26.252Z,78528.00
2018-09-08T09:47:26.249Z,83808.00
2018-09-08T09:48:26.250Z,87200.00
2018-09-08T09:49:26.248Z,83008.00
2018-09-08T09:50:26.245Z,79808.00
2018-09-08T09:51:26.244Z,78912.00
2018-09-08T09:52:26.241Z,81792.00
2018-09-08T09:53:26.240Z,81216.00
2018-09-08T09:54:26.239Z,87136.00
2018-09-08T09:55:26.237Z,86656.00
2018-09-08T09:56:26.236Z,88224.00
2018-09-08T09:57:26.234Z,23680.00
2018-09-08T09:58:26.239Z,59712.00
2018-09-08T09:59:26.238Z,83520.00
2018-09-08T10:00:26.234Z,84928.00
2018-09-08T10:01:26.229Z,86208.00
2018-09-08T10:02:26.228Z,85344.00
2018-09-08T10:03:26.226Z,82656.00
2018-09-08T10:04:26.225Z,82304.00
2018-09-08T10:05:26.221Z,85696.00
2018-09-08T10:06:26.254Z,91712.00
2018-09-08T10:07:26.227Z,91968.00
2018-09-08T10:08:26.222Z,91424.00
2018-09-08T10:09:26.225Z,91136.00
2018-09-08T10:10:26.215Z,89888.00
2018-09-08T10:11:26.213Z,89952.00
2018-09-08T10:12:26.214Z,87712.00
2018-09-08T10:13:26.215Z,84352.00
2018-09-08T10:14:26.211Z,83392.00
2018-09-08T10:15:26.209Z,88416.00
2018-09-08T10:16:26.210Z,81408.00
2018-09-08T10:17:26.205Z,89024.00
2018-09-08T10:18:26.207Z,11060.00
2018-09-08T10:19:26.205Z,10404.00
2018-09-08T10:20:26.211Z,85792.00
2018-09-08T10:21:26.204Z,89984.00
2018-09-08T10:22:26.204Z,90944.00
2018-09-08T10:23:26.254Z,10812.00
2018-09-08T10:24:26.204Z,61152.00
2018-09-08T10:25:26.201Z,18368.00
2018-09-08T10:26:26.257Z,40000.00
2018-09-08T10:27:26.199Z,81376.00
2018-09-08T10:28:26.196Z,94080.00
2018-09-08T10:29:26.193Z,95776.00
2018-09-08T10:30:26.212Z,93024.00
2018-09-08T10:31:26.194Z,90336.00
2018-09-08T10:32:26.191Z,95520.00
2018-09-08T10:33:26.190Z,88384.00
2018-09-08T10:34:26.188Z,92544.00
2018-09-08T10:35:26.188Z,90720.00
2018-09-08T10:36:26.184Z,90816.00
2018-09-08T10:37:26.186Z,93152.00
2018-09-08T10:38:27.194Z,86592.00
2018-09-08T10:39:26.178Z,91360.00
2018-09-08T10:40:26.259Z,94080.00
2018-09-08T10:41:26.177Z,100224.00
2018-09-08T10:42:26.177Z,99520.00
2018-09-08T10:43:26.177Z,96416.00
2018-09-08T10:44:26.175Z,88608.00
2018-09-08T10:45:26.182Z,84000.00
2018-09-08T10:46:26.176Z,86720.00
2018-09-08T10:47:26.173Z,92928.00
2018-09-08T10:48:26.172Z,98176.00
2018-09-08T10:49:26.171Z,98976.00
2018-09-08T10:50:26.173Z,97664.00
2018-09-08T10:51:26.173Z,93824.00
2018-09-08T10:52:26.169Z,89824.00
2018-09-08T10:53:26.170Z,88672.00
2018-09-08T10:54:26.168Z,86880.00
2018-09-08T10:55:26.169Z,88000.00
2018-09-08T10:56:26.175Z,91456.00
2018-09-08T10:57:26.168Z,92480.00
2018-09-08T10:58:26.175Z,57024.00
2018-09-08T10:59:26.167Z,91808.00
2018-09-08T11:00:26.166Z,81440.00
2018-09-08T11:01:26.255Z,95008.00
2018-09-08T11:02:26.404Z,96128.00
2018-09-08T11:03:26.166Z,95648.00
2018-09-08T11:04:26.164Z,15316.00
2018-09-08T11:05:26.162Z,11704.00
2018-09-08T11:06:26.168Z,14540.00
2018-09-08T11:07:26.165Z,96288.00
2018-09-08T11:08:26.163Z,49088.00
2018-09-08T11:09:26.169Z,94080.00
2018-09-08T11:10:26.160Z,104352.00
2018-09-08T11:11:26.169Z,16680.00
2018-09-08T11:12:26.160Z,95264.00
2018-09-08T11:13:26.159Z,101344.00
2018-09-08T11:14:26.157Z,20320.00
2018-09-08T11:15:26.216Z,95968.00
2018-09-08T11:16:26.161Z,96544.00
2018-09-08T11:17:26.154Z,94368.00
2018-09-08T11:18:26.153Z,95648.00
2018-09-08T11:19:26.156Z,94752.00
2018-09-08T11:20:26.152Z,92544.00
2018-09-08T11:21:26.152Z,93504.00
2018-09-08T11:22:26.151Z,90368.00
2018-09-08T11:23:26.150Z,83776.00
2018-09-08T11:24:26.149Z,90976.00
2018-09-08T11:25:26.149Z,91008.00
2018-09-08T11:26:26.148Z,90912.00
2018-09-08T11:27:26.147Z,85440.00
2018-09-08T11:28:26.147Z,83744.00
2018-09-08T11:29:26.146Z,87232.00
2018-09-08T11:30:26.158Z,91712.00
2018-09-08T11:31:26.144Z,94528.00
2018-09-08T11:32:26.146Z,94720.00
2018-09-08T11:33:26.153Z,94080.00
2018-09-08T11:34:26.144Z,94176.00
2018-09-08T11:35:26.143Z,90880.00
2018-09-08T11:36:26.145Z,19552.00
2018-09-08T11:37:26.145Z,60288.00
2018-09-08T11:38:26.249Z,97312.00
2018-09-08T11:39:26.141Z,95072.00
2018-09-08T11:40:26.144Z,96032.00
2018-09-08T11:41:26.141Z,41920.00
2018-09-08T11:42:26.141Z,93408.00
2018-09-08T11:43:26.142Z,97440.00
2018-09-08T11:44:26.141Z,64608.00
2018-09-08T11:45:26.140Z,11696.00
2018-09-08T11:46:26.139Z,14480.00
2018-09-08T11:47:26.141Z,95392.00
2018-09-08T11:48:26.144Z,97120.00
2018-09-08T11:49:26.163Z,98464.00
2018-09-08T11:50:26.138Z,100288.00
2018-09-08T11:51:26.147Z,28640.00
2018-09-08T11:52:26.142Z,30208.00
2018-09-08T11:53:26.141Z,67648.00
2018-09-08T11:54:26.139Z,96192.00
2018-09-08T11:55:26.141Z,19200.00
2018-09-08T11:56:26.143Z,60640.00
2018-09-08T11:57:26.137Z,19104.00
2018-09-08T11:58:26.136Z,94656.00
2018-09-08T11:59:26.169Z,36192.00
2018-09-08T12:00:26.134Z,48960.00
2018-09-08T12:01:26.133Z,79520.00
2018-09-08T12:02:26.134Z,86880.00
2018-09-08T12:03:26.130Z,23328.00
2018-09-08T12:04:26.129Z,92128.00
2018-09-08T12:05:26.128Z,93312.00
2018-09-08T12:06:26.175Z,92224.00
2018-09-08T12:07:26.133Z,81344.00
2018-09-08T12:08:26.127Z,19296.00
2018-09-08T12:09:26.124Z,24480.00
2018-09-08T12:10:26.124Z,17856.00
2018-09-08T12:11:26.122Z,15516.00
2018-09-08T12:12:26.121Z,12952.00
2018-09-08T12:13:26.118Z,94240.00
2018-09-08T12:14:26.116Z,96928.00
2018-09-08T12:15:26.142Z,13060.00
2018-09-08T12:16:26.113Z,12504.00
2018-09-08T12:17:26.112Z,20960.00
2018-09-08T12:18:26.108Z,51520.00
2018-09-08T12:19:26.109Z,13816.00
2018-09-08T12:20:26.115Z,12004.00
2018-09-08T12:21:26.106Z,49248.00